Time;durP1;ratioP1;P1;durP2;ratioP2;P2;SDS_P1;SDS_P2;PMS_P1;PMS_P2;Temp;Humidity;BMP_temperature;BMP_pressure;BME280_temperature;BME280_humidity;BME280_pressure;Samples;Min_cycle;Max_cycle;Signal;HPM_P1;HPM_P2
2022/03/04 00:01:31;;;;;;;8.95;7.30;;;;;;;2.02;76.15;99500.94;1678813;85;20977;-74
2022/03/04 00:03:58;;;;;;;8.95;7.20;;;;;;;1.99;76.12;99495.92;1678709;85;20988;-74
2022/03/04 00:06:25;;;;;;;8.78;7.10;;;;;;;1.96;76.14;99498.25;1678741;85;22560;-74
2022/03/04 00:08:52;;;;;;;9.13;7.15;;;;;;;1.95;76.17;99491.37;1678427;85;21024;-75
2022/03/04 00:11:19;;;;;;;8.65;7.20;;;;;;;1.95;76.13;99493.14;1678692;84;21029;-74
2022/03/04 00:13:46;;;;;;;8.53;6.92;;;;;;;1.93;76.17;99488.45;1678198;84;20992;-74
2022/03/04 00:16:12;;;;;;;8.78;6.80;;;;;;;1.92;76.16;99487.62;1712392;82;21028;-74
2022/03/04 00:18:40;;;;;;;10.03;7.35;;;;;;;1.93;76.21;99486.72;1711984;83;21903;-74
2022/03/04 00:21:08;;;;;;;8.90;7.33;;;;;;;1.95;76.20;99486.62;1711766;83;20951;-74
2022/03/04 00:23:35;;;;;;;8.13;7.08;;;;;;;1.94;76.20;99486.25;1676366;85;20985;-74
2022/03/04 00:26:01;;;;;;;9.43;7.30;;;;;;;1.94;76.22;99487.55;1676414;85;21539;-74
2022/03/04 00:28:28;;;;;;;9.48;6.53;;;;;;;1.93;76.26;99493.66;1676417;85;21020;-74
2022/03/04 00:30:55;;;;;;;8.93;7.05;;;;;;;1.91;76.28;99489.84;1676401;85;21824;-74
2022/03/04 00:33:22;;;;;;;7.65;6.42;;;;;;;1.90;76.31;99491.25;1676457;85;21084;-74
2022/03/04 00:35:50;;;;;;;8.43;6.67;;;;;;;1.91;76.34;99490.31;1712185;82;21021;-75
2022/03/04 00:38:17;;;;;;;8.73;6.90;;;;;;;1.92;76.32;99486.78;1676204;85;20953;-75
2022/03/04 00:40:44;;;;;;;8.13;6.50;;;;;;;1.91;76.34;99495.06;1678356;85;21032;-75
2022/03/04 00:43:11;;;;;;;9.20;7.25;;;;;;;1.89;76.39;99488.27;1678478;85;22534;-75
2022/03/04 00:45:37;;;;;;;8.18;6.50;;;;;;;1.88;76.45;99480.92;1678407;85;21447;-75
2022/03/04 00:48:04;;;;;;;9.35;7.17;;;;;;;1.87;76.47;99483.63;1678476;85;20993;-75
2022/03/04 00:50:31;;;;;;;8.63;6.67;;;;;;;1.86;76.52;99487.16;1678780;85;20953;-75
2022/03/04 00:53:01;;;;;;;8.30;6.70;;;;;;;1.85;76.55;99482.87;1678873;85;21005;-75
2022/03/04 00:55:27;;;;;;;7.40;6.37;;;;;;;1.85;76.60;99477.20;1713057;83;21918;-75
2022/03/04 00:57:54;;;;;;;8.60;6.50;;;;;;;1.86;76.61;99474.13;1712651;83;21041;-75
2022/03/04 01:00:21;;;;;;;7.90;6.85;;;;;;;1.86;76.58;99480.18;1712166;83;20967;-75
2022/03/04 01:02:48;;;;;;;7.62;6.28;;;;;;;1.88;76.59;99479.62;1712588;83;20989;-74
2022/03/04 01:05:14;;;;;;;8.10;6.87;;;;;;;1.87;76.60;99475.34;1676342;85;21004;-75
2022/03/04 01:07:41;;;;;;;8.50;6.90;;;;;;;1.85;76.59;99477.67;1676912;85;22664;-72
2022/03/04 01:10:08;;;;;;;8.10;6.60;;;;;;;1.83;76.55;99473.83;1678261;85;21429;-73
2022/03/04 01:12:35;;;;;;;8.33;6.72;;;;;;;1.80;76.57;99481.83;1679131;84;20989;-73
2022/03/04 01:15:02;;;;;;;7.97;6.58;;;;;;;1.77;76.55;99472.06;1678700;85;21040;-74
2022/03/04 01:17:29;;;;;;;7.95;6.75;;;;;;;1.76;76.60;99467.32;1678508;85;20949;-74
2022/03/04 01:19:56;;;;;;;9.00;6.65;;;;;;;1.75;76.58;99470.85;1678512;84;21825;-73
2022/03/04 01:22:23;;;;;;;8.23;6.62;;;;;;;1.76;76.57;99475.59;1678570;85;21001;-74
2022/03/04 01:24:50;;;;;;;8.00;6.65;;;;;;;1.75;76.64;99480.43;1678578;84;20960;-73
2022/03/04 01:27:16;;;;;;;7.83;6.17;;;;;;;1.75;76.65;99478.66;1678483;85;21411;-73
2022/03/04 01:29:43;;;;;;;7.58;6.22;;;;;;;1.77;76.63;99472.90;1678500;85;21515;-74
2022/03/04 01:32:10;;;;;;;8.23;6.50;;;;;;;1.77;76.62;99468.16;1678520;85;21836;-73
2022/03/04 01:34:37;;;;;;;7.20;6.33;;;;;;;1.78;76.61;99475.04;1678441;85;20949;-74
2022/03/04 01:37:04;;;;;;;7.30;6.33;;;;;;;1.79;76.60;99465.00;1678582;85;21028;-73
2022/03/04 01:39:32;;;;;;;7.60;6.15;;;;;;;1.81;76.59;99470.48;1678393;84;21055;-73
2022/03/04 01:41:59;;;;;;;8.08;6.15;;;;;;;1.79;76.50;99465.83;1678490;84;20965;-74
2022/03/04 01:44:25;;;;;;;7.97;6.90;;;;;;;1.79;76.47;99474.11;1678681;85;21843;-73
2022/03/04 01:46:53;;;;;;;8.50;6.70;;;;;;;1.77;76.42;99487.22;1678618;85;21020;-73
2022/03/04 01:49:20;;;;;;;8.10;6.42;;;;;;;1.77;76.45;99479.88;1679085;84;21001;-73
2022/03/04 01:51:46;;;;;;;8.70;6.22;;;;;;;1.78;76.47;99486.75;1713401;83;20978;-74
2022/03/04 01:54:13;;;;;;;9.48;6.78;;;;;;;1.79;76.47;99479.31;1713810;82;20997;-73
2022/03/04 01:56:40;;;;;;;7.80;6.33;;;;;;;1.78;76.43;99483.69;1713197;83;22623;-74
2022/03/04 01:59:07;;;;;;;8.05;6.67;;;;;;;1.79;76.41;99491.03;1713326;83;21433;-74
2022/03/04 02:01:35;;;;;;;8.53;6.60;;;;;;;1.79;76.38;99492.33;1711202;82;21050;-74
2022/03/04 02:04:02;;;;;;;7.95;6.25;;;;;;;1.78;76.33;99488.89;1711402;83;21041;-75
2022/03/04 02:06:29;;;;;;;9.03;6.97;;;;;;;1.80;76.35;99500.05;1678660;85;20953;-74
2022/03/04 02:08:56;;;;;;;8.03;6.15;;;;;;;1.80;76.33;99497.45;1678641;84;22759;-75
2022/03/04 02:11:23;;;;;;;7.80;6.45;;;;;;;1.81;76.32;99502.19;1678359;85;21484;-75
2022/03/04 02:13:50;;;;;;;7.97;6.33;;;;;;;1.80;76.28;99500.05;1678353;85;20950;-75
2022/03/04 02:16:25;;;;;;;8.70;6.78;;;;;;;1.78;76.29;99504.52;1678130;85;20997;-75
2022/03/04 02:18:52;;;;;;;8.68;7.03;;;;;;;1.78;76.30;99505.81;1678170;85;21314;-75
2022/03/04 02:21:20;;;;;;;8.03;6.35;;;;;;;1.79;76.32;99506.65;1678282;85;21924;-75
2022/03/04 02:23:48;;;;;;;8.63;7.00;;;;;;;1.79;76.32;99504.88;1678157;84;20986;-75
2022/03/04 02:26:15;;;;;;;8.23;6.17;;;;;;;1.78;76.32;99505.81;1678381;85;21001;-75
2022/03/04 02:28:41;;;;;;;9.78;7.03;;;;;;;1.79;76.35;99502.75;1678249;85;20953;-74
2022/03/04 02:31:08;;;;;;;9.60;7.12;;;;;;;1.81;76.33;99510.83;1678296;85;21367;-75
2022/03/04 02:33:35;;;;;;;9.55;7.00;;;;;;;1.80;76.31;99508.33;1678218;85;21829;-75
2022/03/04 02:36:02;;;;;;;8.55;7.00;;;;;;;1.80;76.33;99503.12;1678213;85;21040;-75
2022/03/04 02:38:29;;;;;;;8.48;6.60;;;;;;;1.80;76.33;99506.55;1658698;85;21336;-75
2022/03/04 02:40:57;;;;;;;8.40;6.90;;;;;;;1.78;76.31;99507.12;1678258;85;21001;-75
2022/03/04 02:43:24;;;;;;;8.33;6.72;;;;;;;1.77;76.33;99502.00;1678154;85;21013;-75
2022/03/04 02:45:51;;;;;;;8.48;6.90;;;;;;;1.77;76.34;99507.20;1678525;85;22619;-75
2022/03/04 02:48:18;;;;;;;9.25;6.95;;;;;;;1.77;76.36;99506.74;1678704;84;21372;-75
2022/03/04 02:50:45;;;;;;;7.65;6.40;;;;;;;1.79;76.37;99510.09;1679533;85;20988;-75
2022/03/04 02:53:12;;;;;;;8.05;6.60;;;;;;;1.79;76.34;99504.05;1679045;85;21649;-75
2022/03/04 02:55:39;;;;;;;9.90;7.10;;;;;;;1.77;76.30;99504.61;1679120;84;21009;-74
2022/03/04 02:58:06;;;;;;;9.50;7.22;;;;;;;1.76;76.31;99505.07;1679137;85;21923;-74
2022/03/04 03:00:34;;;;;;;8.90;6.78;;;;;;;1.76;76.26;99501.16;1680044;85;20982;-74
2022/03/04 03:03:01;;;;;;;8.65;6.87;;;;;;;1.75;76.25;99500.80;1680899;85;20961;-74
2022/03/04 03:05:27;;;;;;;8.63;6.40;;;;;;;1.76;76.29;99499.86;1681188;85;21017;-74
2022/03/04 03:07:54;;;;;;;8.58;6.45;;;;;;;1.78;76.26;99499.77;1681066;85;21080;-74
2022/03/04 03:10:21;;;;;;;10.43;6.83;;;;;;;1.75;76.20;99498.66;1687347;85;21798;-74
2022/03/04 03:12:48;;;;;;;9.33;7.15;;;;;;;1.72;76.17;99501.78;1715873;82;20926;-74
2022/03/04 03:15:15;;;;;;;9.05;7.10;;;;;;;1.72;76.19;99502.25;1715789;83;20982;-74
2022/03/04 03:17:42;;;;;;;8.50;7.08;;;;;;;1.70;76.17;99504.94;1715787;83;21556;-74
2022/03/04 03:20:11;;;;;;;9.23;6.92;;;;;;;1.69;76.17;99504.57;1716018;83;20930;-75
2022/03/04 03:22:38;;;;;;;8.35;6.80;;;;;;;1.68;76.18;99502.06;1716262;83;21884;-75
2022/03/04 03:25:06;;;;;;;9.55;7.03;;;;;;;1.67;76.18;99502.52;1715979;82;20963;-75
2022/03/04 03:27:34;;;;;;;8.20;6.72;;;;;;;1.68;76.16;99496.85;1680374;85;20996;-74
2022/03/04 03:30:00;;;;;;;10.90;6.65;;;;;;;1.67;76.08;99502.52;1679002;85;21206;-75
2022/03/04 03:32:27;;;;;;;7.78;6.35;;;;;;;1.64;76.07;99502.70;1713197;82;20994;-75
2022/03/04 03:34:54;;;;;;;8.75;7.05;;;;;;;1.64;76.04;99507.91;1712974;83;21922;-75
2022/03/04 03:37:21;;;;;;;8.83;6.75;;;;;;;1.64;76.05;99505.31;1712816;83;21333;-74
2022/03/04 03:39:48;;;;;;;9.95;7.30;;;;;;;1.66;76.07;99502.15;1712935;82;21460;-74
2022/03/04 03:42:15;;;;;;;8.75;7.05;;;;;;;1.68;76.03;99498.16;1713087;83;21041;-74
2022/03/04 03:44:42;;;;;;;9.80;7.25;;;;;;;1.69;76.00;99501.97;1713012;83;20961;-74
2022/03/04 03:47:09;;;;;;;9.98;6.83;;;;;;;1.67;75.90;99497.78;1713241;83;21732;-74
2022/03/04 03:49:37;;;;;;;7.80;6.40;;;;;;;1.65;75.86;99495.27;1678492;84;21062;-75
2022/03/04 03:52:05;;;;;;;7.87;6.28;;;;;;;1.63;75.83;99491.89;1678451;84;20988;-75
2022/03/04 03:54:32;;;;;;;8.68;6.75;;;;;;;1.64;75.83;99501.84;1678535;85;20989;-75
2022/03/04 03:56:59;;;;;;;8.90;6.72;;;;;;;1.63;75.82;99502.77;1678169;85;21411;-75
2022/03/04 03:59:25;;;;;;;8.90;6.83;;;;;;;1.63;75.83;99503.61;1678539;85;21810;-75
2022/03/04 04:01:52;;;;;;;9.58;7.67;;;;;;;1.64;75.82;99501.41;1678217;85;21038;-75
2022/03/04 04:04:19;;;;;;;8.03;6.35;;;;;;;1.64;75.87;99502.70;1678611;85;20957;-75
2022/03/04 04:06:46;;;;;;;7.28;6.00;;;;;;;1.63;75.85;99502.30;1712866;82;21493;-75
2022/03/04 04:09:13;;;;;;;9.43;6.78;;;;;;;1.63;75.87;99510.11;1713002;83;21555;-75
2022/03/04 04:11:40;;;;;;;9.03;7.33;;;;;;;1.61;75.86;99502.86;1713357;82;21877;-74
2022/03/04 04:14:08;;;;;;;10.78;7.40;;;;;;;1.59;75.87;99502.58;1712712;83;20994;-75
2022/03/04 04:16:36;;;;;;;8.83;6.83;;;;;;;1.59;75.89;99503.88;1711792;83;21005;-75
2022/03/04 04:19:04;;;;;;;9.35;6.85;;;;;;;1.59;75.94;99494.77;1711643;83;21029;-75
2022/03/04 04:21:31;;;;;;;7.97;6.05;;;;;;;1.57;75.88;99500.06;1711859;83;21465;-75
2022/03/04 04:23:57;;;;;;;9.15;7.08;;;;;;;1.59;75.90;99501.27;1712718;83;21710;-74
2022/03/04 04:26:26;;;;;;;9.05;6.90;;;;;;;1.57;75.88;99501.83;1710686;84;21001;-74
2022/03/04 04:28:53;;;;;;;9.03;6.83;;;;;;;1.56;75.90;99504.90;1710940;84;21089;-74
2022/03/04 04:31:19;;;;;;;8.58;6.75;;;;;;;1.55;75.98;99506.29;1678080;84;20942;-74
2022/03/04 04:33:46;;;;;;;8.98;6.70;;;;;;;1.55;76.03;99510.19;1678721;84;21065;-74
2022/03/04 04:36:13;;;;;;;9.05;6.65;;;;;;;1.57;76.08;99503.97;1678603;85;21830;-74
2022/03/04 04:38:40;;;;;;;8.95;6.90;;;;;;;1.57;76.15;99503.13;1678417;85;21360;-74
2022/03/04 04:41:07;;;;;;;8.80;6.40;;;;;;;1.56;76.20;99504.06;1678562;85;20969;-74
2022/03/04 04:43:34;;;;;;;8.33;6.72;;;;;;;1.57;76.24;99509.64;1678500;85;20989;-74
2022/03/04 04:46:03;;;;;;;10.95;6.97;;;;;;;1.57;76.24;99507.88;1678490;85;21388;-74
2022/03/04 04:48:30;;;;;;;8.53;6.53;;;;;;;1.57;76.29;99515.68;1678459;85;21820;-74
2022/03/04 04:50:59;;;;;;;8.60;6.92;;;;;;;1.57;76.33;99510.94;1678444;85;21041;-74
2022/03/04 04:53:27;;;;;;;8.78;7.10;;;;;;;1.56;76.38;99512.70;1678791;84;21001;-74
2022/03/04 04:55:54;;;;;;;10.30;7.33;;;;;;;1.56;76.42;99511.41;1678444;85;21041;-74
2022/03/04 04:58:21;;;;;;;8.90;6.78;;;;;;;1.60;76.43;99512.90;1678522;85;20990;-74
2022/03/04 05:00:53;;;;;;;8.75;7.22;;;;;;;1.60;76.44;99512.90;1678456;85;21814;-74
2022/03/04 05:03:17;;;;;;;8.23;6.65;;;;;;;1.61;76.47;99518.47;1678104;84;21417;-74
2022/03/04 05:05:44;;;;;;;9.58;7.08;;;;;;;1.64;76.47;99514.85;1678521;85;21472;-73
2022/03/04 05:08:10;;;;;;;35.00;19.25;;;;;;;1.65;76.46;99524.37;1678720;85;20973;-74
2022/03/04 05:10:38;;;;;;;33.02;20.95;;;;;;;1.63;76.47;99527.03;1665591;85;21450;-74
2022/03/04 05:13:05;;;;;;;33.65;19.12;;;;;;;1.62;76.46;99515.41;1665821;86;21864;-74
2022/03/04 05:15:31;;;;;;;62.48;35.05;;;;;;;1.63;76.48;99520.98;1665622;85;21160;-74
2022/03/04 05:17:58;;;;;;;79.10;42.20;;;;;;;1.63;76.49;99523.13;1663429;85;20983;-74
2022/03/04 05:20:25;;;;;;;57.58;30.97;;;;;;;1.66;76.52;99522.14;1663434;86;21433;-74
2022/03/04 05:22:52;;;;;;;69.97;36.25;;;;;;;1.67;76.46;99522.51;1663390;86;21403;-74
2022/03/04 05:25:19;;;;;;;43.52;23.98;;;;;;;1.67;76.50;99521.20;1663628;86;21442;-74
2022/03/04 05:27:46;;;;;;;37.58;22.90;;;;;;;1.66;76.44;99524.27;1663398;85;20998;-74
2022/03/04 05:30:13;;;;;;;15.93;11.33;;;;;;;1.68;76.46;99522.88;1663609;86;20970;-74
2022/03/04 05:32:40;;;;;;;11.63;9.00;;;;;;;1.70;76.47;99522.33;1663392;86;20986;-74
2022/03/04 05:35:08;;;;;;;18.17;12.78;;;;;;;1.71;76.43;99523.54;1663763;85;20951;-74
2022/03/04 05:37:35;;;;;;;26.95;17.98;;;;;;;1.73;76.33;99529.95;1663414;86;22577;-74
2022/03/04 05:40:03;;;;;;;26.50;17.92;;;;;;;1.73;76.29;99519.08;1663572;86;21070;-74
2022/03/04 05:42:30;;;;;;;41.50;24.55;;;;;;;1.73;76.22;99526.88;1663329;85;20975;-74
2022/03/04 05:44:57;;;;;;;41.48;25.27;;;;;;;1.75;76.17;99536.41;1663609;85;21224;-74
2022/03/04 05:47:24;;;;;;;30.23;18.98;;;;;;;1.78;76.14;99540.96;1663368;86;21030;-75
2022/03/04 05:49:51;;;;;;;22.07;14.33;;;;;;;1.81;76.09;99536.03;1663618;85;21906;-75
2022/03/04 05:52:18;;;;;;;32.35;21.17;;;;;;;1.81;75.89;99542.55;1663345;85;20963;-73
2022/03/04 05:54:44;;;;;;;23.98;15.43;;;;;;;1.81;75.80;99543.84;1663636;86;21066;-74
2022/03/04 05:57:11;;;;;;;26.45;16.87;;;;;;;1.82;75.69;99547.66;1663313;85;22066;-75
2022/03/04 05:59:38;;;;;;;22.77;13.85;;;;;;;1.82;75.58;99544.22;1663393;85;21010;-74
2022/03/04 06:02:05;;;;;;;21.07;12.13;;;;;;;1.83;75.55;99551.10;1663486;85;21916;-74
2022/03/04 06:04:32;;;;;;;19.20;12.20;;;;;;;1.83;75.50;99541.98;1663353;86;21003;-74
2022/03/04 06:06:59;;;;;;;11.50;8.58;;;;;;;1.85;75.48;99539.70;1663413;86;21437;-74
2022/03/04 06:09:28;;;;;;;11.70;9.30;;;;;;;1.88;75.46;99543.42;1663433;85;21066;-74
2022/03/04 06:11:56;;;;;;;9.18;7.95;;;;;;;1.90;75.43;99544.16;1663749;85;21007;-73
2022/03/04 06:14:23;;;;;;;9.20;7.75;;;;;;;1.92;75.41;99542.77;1663808;85;21890;-73
2022/03/04 06:16:49;;;;;;;10.15;7.92;;;;;;;1.93;75.41;99540.53;1663143;85;20955;-74
2022/03/04 06:19:16;;;;;;;11.38;7.60;;;;;;;1.94;75.38;99544.37;1663156;86;21083;-74
2022/03/04 06:21:43;;;;;;;11.50;8.28;;;;;;;1.98;75.39;99549.77;1663129;85;21128;-74
2022/03/04 06:24:10;;;;;;;10.05;7.70;;;;;;;2.00;75.39;99545.77;1663198;86;21457;-74
2022/03/04 06:26:38;;;;;;;11.73;8.63;;;;;;;2.01;75.38;99547.45;1663104;86;21841;-74
2022/03/04 06:29:05;;;;;;;11.65;8.55;;;;;;;2.03;75.42;99546.92;1646112;85;21033;-74
2022/03/04 06:31:32;;;;;;;12.95;8.95;;;;;;;2.07;75.40;99544.50;1672587;85;20982;-74
2022/03/04 06:33:59;;;;;;;12.13;9.10;;;;;;;2.07;75.35;99546.27;1665238;85;21014;-73
2022/03/04 06:36:26;;;;;;;11.85;9.08;;;;;;;2.07;75.35;99544.97;1663108;85;21528;-74
2022/03/04 06:38:54;;;;;;;23.22;12.15;;;;;;;2.09;75.40;99550.92;1663435;85;22578;-74
2022/03/04 06:41:21;;;;;;;16.87;10.45;;;;;;;2.09;75.37;99550.45;1663048;86;20967;-74
2022/03/04 06:43:48;;;;;;;16.05;10.20;;;;;;;2.12;75.41;99543.76;1663207;86;21429;-74
2022/03/04 06:46:16;;;;;;;15.28;10.85;;;;;;;2.13;75.24;99549.38;1663101;86;21075;-75
2022/03/04 06:48:43;;;;;;;14.47;10.48;;;;;;;2.15;75.21;99539.70;1663383;85;21054;-74
2022/03/04 06:51:10;;;;;;;19.12;11.38;;;;;;;2.18;75.23;99542.11;1663054;85;21943;-75
2022/03/04 06:53:37;;;;;;;16.80;11.48;;;;;;;2.21;75.27;99545.83;1663278;86;20966;-75
2022/03/04 06:56:04;;;;;;;18.45;13.48;;;;;;;2.26;75.21;99541.67;1663115;85;21525;-75
2022/03/04 06:58:31;;;;;;;15.75;11.95;;;;;;;2.30;75.09;99545.30;1663197;86;21011;-75
2022/03/04 07:00:59;;;;;;;23.80;16.73;;;;;;;2.32;74.88;99535.25;1663146;86;20935;-74
2022/03/04 07:03:26;;;;;;;19.98;14.03;;;;;;;2.35;74.83;99544.20;1663122;86;22022;-74
2022/03/04 07:05:53;;;;;;;21.02;13.65;;;;;;;2.39;74.76;99543.08;1663033;85;21037;-75
2022/03/04 07:08:21;;;;;;;20.80;14.25;;;;;;;2.42;74.64;99538.55;1663116;85;20990;-75
2022/03/04 07:10:48;;;;;;;20.80;14.53;;;;;;;2.46;74.50;99546.55;1663306;86;21047;-74
2022/03/04 07:13:16;;;;;;;20.27;14.83;;;;;;;2.43;74.08;99540.22;1663385;86;21017;-75
2022/03/04 07:15:45;;;;;;;20.02;13.48;;;;;;;2.43;73.91;99547.20;1669246;85;21021;-74
2022/03/04 07:18:13;;;;;;;19.70;12.93;;;;;;;2.43;73.63;99543.30;1672918;85;21061;-74
2022/03/04 07:20:42;;;;;;;21.90;15.08;;;;;;;2.46;73.62;99547.02;1715031;83;21437;-75
2022/03/04 07:23:09;;;;;;;19.92;14.33;;;;;;;2.52;73.60;99548.80;1713171;82;21178;-74
2022/03/04 07:25:36;;;;;;;21.12;15.20;;;;;;;2.57;73.59;99550.66;1703124;83;21045;-74
2022/03/04 07:28:05;;;;;;;22.58;15.30;;;;;;;2.61;73.36;99554.41;1710752;83;21901;-74
2022/03/04 07:30:32;;;;;;;17.15;12.35;;;;;;;2.65;73.25;99555.41;1710943;82;20952;-75
2022/03/04 07:32:59;;;;;;;16.70;11.80;;;;;;;2.68;72.95;99558.30;1710721;84;20953;-73
2022/03/04 07:35:27;;;;;;;32.15;22.48;;;;;;;2.68;72.66;99556.99;1710848;83;20993;-75
2022/03/04 07:37:55;;;;;;;18.20;13.35;;;;;;;2.66;72.34;99562.77;1712126;82;21508;-75
2022/03/04 07:40:22;;;;;;;18.80;12.78;;;;;;;2.65;72.03;99557.19;1711223;82;22521;-75
2022/03/04 07:42:49;;;;;;;17.17;11.80;;;;;;;2.66;72.12;99554.48;1711120;83;20954;-74
2022/03/04 07:45:16;;;;;;;16.05;11.60;;;;;;;2.72;72.09;99559.34;1712041;83;21061;-75
2022/03/04 07:47:43;;;;;;;17.60;11.15;;;;;;;2.79;72.12;99541.53;1711266;83;21590;-75
2022/03/04 07:50:13;;;;;;;16.50;11.38;;;;;;;2.82;71.76;99550.50;1711477;82;21356;-74
2022/03/04 07:52:43;;;;;;;15.23;9.98;;;;;;;2.86;71.61;99550.20;1711004;83;23669;-74
2022/03/04 07:55:13;;;;;;;16.45;11.53;;;;;;;2.89;71.12;99549.17;1712044;83;21408;-74
2022/03/04 07:57:41;;;;;;;16.85;10.63;;;;;;;2.90;70.78;99548.27;1711085;83;20962;-75
2022/03/04 08:00:13;;;;;;;14.15;9.85;;;;;;;2.89;70.38;99551.78;1713134;82;21042;-76
2022/03/04 08:02:40;;;;;;;13.38;9.55;;;;;;;2.90;70.16;99549.57;1710944;82;21401;-75
2022/03/04 08:05:09;;;;;;;16.35;10.48;;;;;;;2.92;70.04;99548.17;1711737;83;21957;-75
2022/03/04 08:07:37;;;;;;;14.73;9.85;;;;;;;2.94;69.50;99550.21;1710701;83;20977;-74
2022/03/04 08:10:06;;;;;;;15.78;9.58;;;;;;;2.97;69.18;99542.19;1676321;85;21017;-74
2022/03/04 08:12:33;;;;;;;16.90;9.48;;;;;;;3.03;69.23;99552.26;1678428;85;21043;-74
2022/03/04 08:15:00;;;;;;;16.30;9.08;;;;;;;3.11;69.07;99552.63;1678440;85;21571;-74
2022/03/04 08:17:30;;;;;;;16.50;10.40;;;;;;;3.19;68.79;99547.78;1678382;85;21957;-75
2022/03/04 08:19:57;;;;;;;18.25;10.90;;;;;;;3.23;68.48;99547.95;1653164;85;21549;-74
2022/03/04 08:22:24;;;;;;;15.43;9.48;;;;;;;3.27;68.32;99545.97;1663431;85;20939;-75
2022/03/04 08:24:52;;;;;;;14.50;9.73;;;;;;;3.32;67.93;99542.62;1663382;85;21104;-75
2022/03/04 08:27:19;;;;;;;13.50;9.15;;;;;;;3.33;67.67;99549.05;1663397;85;20974;-75
2022/03/04 08:29:46;;;;;;;14.20;9.18;;;;;;;3.38;67.49;99548.77;1663362;86;21859;-75
2022/03/04 08:32:14;;;;;;;11.28;7.90;;;;;;;3.45;67.37;99548.73;1663152;85;21018;-75
2022/03/04 08:34:41;;;;;;;12.13;7.40;;;;;;;3.51;66.85;99550.13;1663424;86;20986;-74
2022/03/04 08:37:08;;;;;;;10.82;7.47;;;;;;;3.58;66.54;99551.42;1663180;86;20995;-74
2022/03/04 08:39:35;;;;;;;10.82;6.92;;;;;;;3.66;66.04;99563.03;1663524;85;21529;-75
2022/03/04 08:42:03;;;;;;;11.85;7.37;;;;;;;3.72;66.07;99567.03;1663227;85;22562;-75
2022/03/04 08:44:30;;;;;;;11.93;7.10;;;;;;;3.76;64.03;99565.05;1663415;85;21439;-75
2022/03/04 08:46:57;;;;;;;10.53;6.87;;;;;;;3.76;64.17;99559.83;1663232;85;21087;-75
2022/03/04 08:49:24;;;;;;;10.68;7.17;;;;;;;3.77;63.96;99561.06;1663413;86;21119;-75
2022/03/04 08:51:52;;;;;;;9.60;6.80;;;;;;;3.86;64.40;99573.97;1663180;86;20982;-75
2022/03/04 08:54:20;;;;;;;10.80;6.78;;;;;;;4.00;64.13;99569.55;1663431;85;21966;-75
2022/03/04 08:56:47;;;;;;;10.80;6.37;;;;;;;4.08;63.37;99566.91;1663387;85;21022;-75
2022/03/04 08:59:14;;;;;;;10.82;6.72;;;;;;;4.08;62.65;99562.98;1663288;86;21066;-75
2022/03/04 09:01:42;;;;;;;9.60;6.67;;;;;;;4.01;62.46;99564.69;1663263;86;20986;-75
2022/03/04 09:04:11;;;;;;;9.63;6.80;;;;;;;3.99;62.40;99566.56;1644517;86;20986;-75
2022/03/04 09:06:38;;;;;;;9.98;5.97;;;;;;;4.04;62.56;99576.70;1663003;86;22811;-76
2022/03/04 09:09:07;;;;;;;12.63;6.08;;;;;;;4.14;62.53;99565.17;1663147;85;21015;-75
2022/03/04 09:11:34;;;;;;;10.25;5.95;;;;;;;4.27;62.71;99571.30;1663258;85;21063;-74
2022/03/04 09:14:03;;;;;;;10.82;5.92;;;;;;;4.36;61.27;99571.98;1663663;86;21008;-75
2022/03/04 09:16:33;;;;;;;9.83;5.80;;;;;;;4.31;60.66;99570.97;1663315;85;21124;-74
2022/03/04 09:19:00;;;;;;;7.95;5.70;;;;;;;4.24;60.05;99571.00;1663375;86;21758;-74
2022/03/04 09:21:28;;;;;;;9.13;5.80;;;;;;;4.24;60.71;99568.86;1663341;85;20998;-75
2022/03/04 09:23:55;;;;;;;10.45;5.85;;;;;;;4.34;61.22;99568.61;1663473;85;21501;-75
2022/03/04 09:26:22;;;;;;;9.15;5.30;;;;;;;4.47;60.84;99564.73;1663393;86;21457;-75
2022/03/04 09:28:49;;;;;;;8.65;5.97;;;;;;;4.56;60.72;99563.64;1663479;86;20979;-75
2022/03/04 09:31:16;;;;;;;11.70;5.97;;;;;;;4.61;59.51;99562.02;1663440;85;21920;-75
2022/03/04 09:33:43;;;;;;;8.83;5.35;;;;;;;4.56;59.32;99557.11;1663327;86;21104;-75
2022/03/04 09:36:14;;;;;;;9.48;5.90;;;;;;;4.59;59.90;99558.67;1663674;85;20970;-75
2022/03/04 09:38:42;;;;;;;9.53;5.87;;;;;;;4.63;59.04;99556.67;1663497;86;20990;-75
2022/03/04 09:41:09;;;;;;;9.30;6.10;;;;;;;4.66;58.90;99559.10;1663739;86;21517;-74
2022/03/04 09:43:36;;;;;;;10.93;6.15;;;;;;;4.74;59.39;99562.88;1663375;85;21907;-74
2022/03/04 09:46:03;;;;;;;8.65;5.53;;;;;;;4.85;59.14;99562.13;1663594;85;21129;-74
2022/03/04 09:48:30;;;;;;;10.85;6.40;;;;;;;4.90;58.99;99554.78;1663448;86;21026;-75
2022/03/04 09:50:57;;;;;;;9.40;6.08;;;;;;;4.95;58.87;99559.25;1663857;85;21027;-75
2022/03/04 09:53:25;;;;;;;13.22;6.40;;;;;;;4.95;57.47;99555.80;1663467;85;21097;-75
2022/03/04 09:55:52;;;;;;;9.45;6.10;;;;;;;4.98;58.36;99551.17;1663691;85;21454;-75
2022/03/04 09:58:19;;;;;;;10.00;5.90;;;;;;;5.13;58.43;99554.05;1663315;86;21468;-75
2022/03/04 10:00:47;;;;;;;9.75;6.40;;;;;;;5.25;58.30;99552.81;1663612;85;21058;-74
2022/03/04 10:03:35;;;;;;;9.48;5.72;;;;;;;5.33;57.09;99550.02;1663444;86;21031;-74
2022/03/04 10:06:02;;;;;;;9.95;6.20;;;;;;;5.37;57.26;99548.01;1663870;85;21461;-74
2022/03/04 10:08:29;;;;;;;9.45;5.62;;;;;;;5.42;56.73;99548.06;1622886;86;22645;-75
2022/03/04 10:10:58;;;;;;;9.48;5.87;;;;;;;5.35;56.94;99552.53;1663345;86;21011;-75
2022/03/04 10:13:49;;;;;;;9.55;6.08;;;;;;;5.38;57.38;99552.30;1663258;85;21192;-74
2022/03/04 10:16:31;;;;;;;9.98;5.85;;;;;;;5.54;57.04;99551.58;1663300;86;21443;-74
2022/03/04 10:19:12;;;;;;;9.70;6.17;;;;;;;5.82;57.25;99553.05;1663176;85;20991;-74
2022/03/04 10:21:58;;;;;;;9.55;5.65;;;;;;;6.13;56.46;99554.75;1671483;85;21951;-74
2022/03/04 10:24:39;;;;;;;8.63;5.42;;;;;;;6.37;55.60;99540.27;1637066;86;21018;-75
2022/03/04 10:27:16;;;;;;;9.80;5.75;;;;;;;6.64;54.50;99541.28;1664025;85;21509;-74
2022/03/04 10:29:50;;;;;;;7.05;5.00;;;;;;;6.78;52.81;99543.23;1714581;83;20974;-74
2022/03/04 10:32:27;;;;;;;8.85;5.65;;;;;;;6.65;52.27;99539.85;1679650;85;21092;-76
2022/03/04 10:35:03;;;;;;;9.08;5.50;;;;;;;6.51;53.02;99550.58;1678614;85;21935;-76
2022/03/04 10:37:54;;;;;;;7.12;5.05;;;;;;;6.32;52.47;99538.02;1678541;85;20949;-75
2022/03/04 10:40:31;;;;;;;8.30;4.92;;;;;;;6.12;53.15;99554.39;1678487;85;20941;-75
2022/03/04 10:43:06;;;;;;;9.00;5.53;;;;;;;5.96;53.65;99552.05;1678508;85;21428;-76
2022/03/04 10:45:36;;;;;;;8.38;5.58;;;;;;;5.91;54.36;99551.58;1678246;85;20977;-76
2022/03/04 10:48:08;;;;;;;9.55;4.90;;;;;;;5.92;54.02;99545.38;1678534;85;21911;-76
2022/03/04 10:50:42;;;;;;;8.30;5.08;;;;;;;5.90;54.77;99543.32;1678112;84;21519;-76
2022/03/04 10:53:13;;;;;;;;;;;;;;;5.89;54.51;99545.58;1681031;85;21444;-76
2022/03/04 10:55:55;;;;;;;6.85;5.03;;;;;;;5.81;54.80;99547.92;1670274;85;20435;-75
2022/03/04 10:58:26;;;;;;;9.23;5.60;;;;;;;5.71;54.85;99540.73;1669639;85;20974;-75
2022/03/04 11:00:57;;;;;;;9.18;5.60;;;;;;;5.65;55.37;99550.80;1717191;82;21841;-74
2022/03/04 11:03:30;;;;;;;10.23;5.92;;;;;;;5.62;55.53;99555.80;1678841;85;21000;-77
2022/03/04 11:06:02;;;;;;;8.73;5.17;;;;;;;5.58;55.88;99550.40;1678278;85;20997;-75
2022/03/04 11:08:30;;;;;;;7.87;5.72;;;;;;;5.62;56.06;99549.25;1678875;85;21424;-75
2022/03/04 11:10:57;;;;;;;11.05;5.87;;;;;;;5.58;55.71;99556.95;1678415;84;21037;-76
2022/03/04 11:13:24;;;;;;;8.23;5.90;;;;;;;5.52;56.24;99561.34;1678457;85;21944;-75
2022/03/04 11:15:52;;;;;;;7.65;5.50;;;;;;;5.51;56.52;99550.97;1678276;84;21076;-75
2022/03/04 11:18:21;;;;;;;7.80;5.25;;;;;;;5.57;56.58;99550.04;1678348;84;21021;-76
2022/03/04 11:20:52;;;;;;;9.15;5.80;;;;;;;5.66;56.33;99544.61;1678442;84;21401;-75
2022/03/04 11:23:31;;;;;;;7.65;5.50;;;;;;;5.65;55.60;99556.88;1678376;85;20973;-76
2022/03/04 11:26:03;;;;;;;9.33;5.58;;;;;;;5.58;55.94;99553.02;1678581;85;21447;-76
2022/03/04 11:28:41;;;;;;;8.75;6.08;;;;;;;5.60;56.27;99549.84;1678338;85;21415;-76
2022/03/04 11:31:13;;;;;;;9.53;5.85;;;;;;;5.66;55.88;99548.07;1676837;85;21023;-74
2022/03/04 11:34:00;;;;;;;9.43;5.50;;;;;;;5.81;56.45;99546.61;1658760;85;25390;-75
2022/03/04 11:36:32;;;;;;;9.40;5.87;;;;;;;6.01;56.45;99551.26;1713756;82;21013;-76
2022/03/04 11:39:03;;;;;;;9.38;6.30;;;;;;;5.98;55.50;99555.39;1678403;85;21858;-75
2022/03/04 11:41:37;;;;;;;8.63;6.20;;;;;;;5.72;56.09;99548.11;1678761;85;20953;-75